createdAt,value
2024-02-13T00:00:14.018Z,4.53
2024-02-13T00:03:16.242Z,3.83
2024-02-13T00:06:19.779Z,5.30
2024-02-13T00:09:21.919Z,3.77
2024-02-13T00:12:24.535Z,4.68
2024-02-13T00:15:26.759Z,2.70
2024-02-13T00:18:29.327Z,3.72
2024-02-13T00:21:34.731Z,3.95
2024-02-13T00:24:37.652Z,2.55
2024-02-13T00:27:40.115Z,3.78
2024-02-13T00:30:42.317Z,3.73
2024-02-13T00:33:45.105Z,3.28
2024-02-13T00:36:49.564Z,4.63
2024-02-13T00:39:52.305Z,4.87
2024-02-13T00:42:54.472Z,3.80
2024-02-13T00:45:58.470Z,5.05
2024-02-13T00:49:01.484Z,4.63
2024-02-13T00:52:04.521Z,2.55
2024-02-13T00:55:08.725Z,3.00
2024-02-13T00:58:11.099Z,3.80
2024-02-13T01:01:14.284Z,2.77
2024-02-13T01:04:16.654Z,2.40
2024-02-13T01:07:19.163Z,2.50
2024-02-13T01:10:21.380Z,2.20
2024-02-13T01:13:23.394Z,2.85
2024-02-13T01:16:25.633Z,6.28
2024-02-13T01:19:28.201Z,2.40
2024-02-13T01:22:37.955Z,4.00
2024-02-13T01:25:40.399Z,2.63
2024-02-13T01:28:43.627Z,3.03
2024-02-13T01:31:47.686Z,2.50
2024-02-13T01:34:50.628Z,4.00
2024-02-13T01:37:53.112Z,3.28
2024-02-13T01:40:55.170Z,2.97
2024-02-13T01:43:57.725Z,2.90
2024-02-13T01:47:00.140Z,3.78
2024-02-13T01:50:02.672Z,3.20
2024-02-13T01:53:04.943Z,5.43
2024-02-13T01:56:08.526Z,4.50
2024-02-13T01:59:10.717Z,3.45
2024-02-13T02:02:13.248Z,3.47
2024-02-13T02:05:16.241Z,4.40
2024-02-13T02:08:19.554Z,4.03
2024-02-13T02:11:21.715Z,4.03
2024-02-13T02:14:24.149Z,4.93
2024-02-13T02:17:26.221Z,4.03
2024-02-13T02:20:29.083Z,6.72
2024-02-13T02:23:32.652Z,4.78
2024-02-13T02:26:35.193Z,8.05
2024-02-13T02:29:38.386Z,6.90
2024-02-13T02:32:41.086Z,4.13
2024-02-13T02:35:43.848Z,5.50
2024-02-13T02:38:46.133Z,4.22
2024-02-13T02:41:48.487Z,6.17
2024-02-13T02:44:51.490Z,5.30
2024-02-13T02:47:53.959Z,4.38
2024-02-13T02:50:56.840Z,6.85
2024-02-13T02:53:59.567Z,4.93
2024-02-13T02:57:03.392Z,4.75
2024-02-13T03:00:11.275Z,4.15
2024-02-13T03:03:13.487Z,4.70
2024-02-13T03:06:17.960Z,7.50
2024-02-13T03:09:20.744Z,4.10
2024-02-13T03:12:24.021Z,5.80
2024-02-13T03:15:28.296Z,5.93
2024-02-13T03:18:30.716Z,4.55
2024-02-13T03:21:33.258Z,5.85
2024-02-13T03:24:35.601Z,4.95
2024-02-13T03:27:38.188Z,4.57
2024-02-13T03:30:41.062Z,4.35
2024-02-13T03:33:43.959Z,4.83
2024-02-13T03:36:46.069Z,5.22
2024-02-13T03:39:48.639Z,3.70
2024-02-13T03:42:50.766Z,5.70
2024-02-13T03:45:54.525Z,4.15
2024-02-13T03:48:56.827Z,6.78
2024-02-13T03:52:00.249Z,6.82
2024-02-13T03:55:05.933Z,5.18
2024-02-13T03:58:08.475Z,4.40
2024-02-13T04:01:10.919Z,5.15
2024-02-13T04:04:13.002Z,5.80
2024-02-13T04:07:16.980Z,5.00
2024-02-13T04:10:19.447Z,4.47
2024-02-13T04:13:21.566Z,5.23
2024-02-13T04:16:24.846Z,6.15
2024-02-13T04:19:27.114Z,8.25
2024-02-13T04:22:29.642Z,5.53
2024-02-13T04:25:32.195Z,6.70
2024-02-13T04:28:34.223Z,8.32
2024-02-13T04:31:37.784Z,6.53
2024-02-13T04:34:43.436Z,5.43
2024-02-13T04:37:45.550Z,6.10
2024-02-13T04:40:47.936Z,6.47
2024-02-13T04:43:51.175Z,6.63
2024-02-13T04:46:56.422Z,7.70
2024-02-13T04:50:03.176Z,6.85
2024-02-13T04:53:06.510Z,3.58
2024-02-13T04:56:08.652Z,7.03
2024-02-13T04:59:16.361Z,5.50
2024-02-13T05:02:20.328Z,10.02
2024-02-13T05:05:41.653Z,6.30
2024-02-13T05:08:44.905Z,5.93
2024-02-13T05:11:47.503Z,9.82
2024-02-13T05:14:56.272Z,5.33
2024-02-13T05:17:58.480Z,7.60
2024-02-13T05:21:01.022Z,5.30
2024-02-13T05:24:04.801Z,5.07
2024-02-13T05:27:09.360Z,6.18
2024-02-13T05:30:12.179Z,6.55
2024-02-13T05:33:14.767Z,5.38
2024-02-13T05:36:17.614Z,8.07
2024-02-13T05:39:19.772Z,7.18
2024-02-13T05:42:24.196Z,8.02
2024-02-13T05:45:26.575Z,6.13
2024-02-13T05:48:29.474Z,7.95
2024-02-13T05:51:31.591Z,6.97
2024-02-13T05:54:36.305Z,6.05
2024-02-13T05:57:43.038Z,7.10
2024-02-13T06:00:46.808Z,7.70
2024-02-13T06:03:51.553Z,7.80
2024-02-13T06:06:53.927Z,6.53
2024-02-13T06:09:56.619Z,6.90
2024-02-13T06:12:59.217Z,7.20
2024-02-13T06:16:01.822Z,6.67
2024-02-13T06:19:03.925Z,6.88
2024-02-13T06:22:06.440Z,8.07
2024-02-13T06:25:11.510Z,7.85
2024-02-13T06:28:15.725Z,8.93
2024-02-13T06:31:18.174Z,9.55
2024-02-13T06:34:21.068Z,7.30
2024-02-13T06:37:25.868Z,7.63
2024-02-13T06:40:28.345Z,10.50
2024-02-13T06:43:30.421Z,8.73
2024-02-13T06:46:32.886Z,8.10
2024-02-13T06:49:35.780Z,9.07
2024-02-13T06:52:38.674Z,7.65
2024-02-13T06:55:41.171Z,10.63
2024-02-13T06:58:43.758Z,9.00
2024-02-13T07:01:45.813Z,10.38
2024-02-13T07:04:47.866Z,9.55
2024-02-13T07:07:50.246Z,13.60
2024-02-13T07:10:56.038Z,13.23
2024-02-13T07:14:00.368Z,10.73
2024-02-13T07:17:02.718Z,11.27
2024-02-13T07:20:07.369Z,9.40
2024-02-13T07:23:10.246Z,10.82
2024-02-13T07:26:14.582Z,9.75
2024-02-13T07:29:17.345Z,8.18
2024-02-13T07:32:21.604Z,9.13
2024-02-13T07:35:24.667Z,9.15
2024-02-13T07:38:27.472Z,7.67
2024-02-13T07:41:29.823Z,9.00
2024-02-13T07:44:32.229Z,8.40
2024-02-13T07:47:35.568Z,8.70
2024-02-13T07:50:38.388Z,8.52
2024-02-13T07:53:41.715Z,8.07
2024-02-13T07:56:43.879Z,8.18
2024-02-13T07:59:46.291Z,8.43
2024-02-13T08:02:52.563Z,9.40
2024-02-13T08:05:55.439Z,8.77
2024-02-13T08:08:57.524Z,7.70
2024-02-13T08:12:00.153Z,10.60
2024-02-13T08:15:05.051Z,7.70
2024-02-13T08:18:07.579Z,8.73
2024-02-13T08:21:09.874Z,8.13
2024-02-13T08:24:18.101Z,9.55
2024-02-13T08:27:21.924Z,5.93
2024-02-13T08:30:25.197Z,7.90
2024-02-13T08:33:27.444Z,4.63
2024-02-13T08:36:30.898Z,3.58
2024-02-13T08:39:33.464Z,2.83
2024-02-13T08:42:37.291Z,3.13
2024-02-13T08:45:39.790Z,3.72
2024-02-13T08:48:42.487Z,2.70
2024-02-13T08:51:46.562Z,4.55
2024-02-13T08:54:48.787Z,3.63
2024-02-13T08:57:53.044Z,2.80
2024-02-13T09:00:55.380Z,4.07
2024-02-13T09:03:57.898Z,4.30
2024-02-13T09:07:00.412Z,3.88
2024-02-13T09:10:02.517Z,3.83
2024-02-13T09:13:04.948Z,6.55
2024-02-13T09:16:09.324Z,7.47
2024-02-13T09:19:13.000Z,3.67
2024-02-13T09:22:15.509Z,3.13
2024-02-13T09:25:18.283Z,5.63
2024-02-13T09:28:20.346Z,4.07
2024-02-13T09:31:25.047Z,3.30
2024-02-13T09:34:30.212Z,3.43
2024-02-13T09:37:44.186Z,4.63
2024-02-13T09:40:49.919Z,2.63
2024-02-13T09:43:53.354Z,3.28
2024-02-13T09:46:55.366Z,7.27
2024-02-13T09:49:57.543Z,4.50
2024-02-13T09:52:59.572Z,4.90
2024-02-13T09:56:02.230Z,3.00
2024-02-13T09:59:10.267Z,3.83
2024-02-13T10:02:19.145Z,3.83
2024-02-13T10:05:22.857Z,6.03
2024-02-13T10:08:32.357Z,4.97
2024-02-13T10:11:38.126Z,3.53
2024-02-13T10:14:40.441Z,3.93
2024-02-13T10:17:46.412Z,3.97
2024-02-13T10:20:48.944Z,4.50
2024-02-13T10:23:54.750Z,5.38
2024-02-13T10:26:57.161Z,3.90
2024-02-13T10:29:59.475Z,4.30
2024-02-13T10:33:02.807Z,4.93
2024-02-13T10:36:07.301Z,6.13
2024-02-13T10:39:10.240Z,5.15
2024-02-13T10:42:12.782Z,4.85
2024-02-13T10:45:18.319Z,3.73
2024-02-13T10:48:42.145Z,4.27
2024-02-13T10:51:44.431Z,3.75
2024-02-13T10:54:49.486Z,4.63
2024-02-13T10:57:54.017Z,3.97
2024-02-13T11:00:56.282Z,3.57
2024-02-13T11:04:01.803Z,3.43
2024-02-13T11:07:04.603Z,3.47
2024-02-13T11:10:10.269Z,3.83
2024-02-13T11:13:13.368Z,5.38
2024-02-13T11:16:15.638Z,3.90
2024-02-13T11:19:19.925Z,4.00
2024-02-13T11:22:35.990Z,2.60
2024-02-13T11:25:43.615Z,3.55
2024-02-13T11:28:47.467Z,3.97
2024-02-13T11:31:57.921Z,3.50
2024-02-13T11:35:00.994Z,4.60
2024-02-13T11:38:12.137Z,4.07
2024-02-13T11:41:19.075Z,3.63
2024-02-13T11:44:21.943Z,5.90
2024-02-13T11:47:25.700Z,4.73
2024-02-13T11:50:30.117Z,3.10
2024-02-13T11:53:32.541Z,3.55
2024-02-13T11:56:36.688Z,3.28
2024-02-13T11:59:40.742Z,3.58
2024-02-13T12:02:45.577Z,4.20
2024-02-13T12:05:50.274Z,3.20
2024-02-13T12:08:53.460Z,4.70
2024-02-13T12:11:56.729Z,3.72
2024-02-13T12:14:59.604Z,3.28
2024-02-13T12:18:04.674Z,3.53
2024-02-13T12:21:09.166Z,3.30
2024-02-13T12:24:12.750Z,2.97
2024-02-13T12:27:16.771Z,3.20
2024-02-13T12:30:21.138Z,2.15
2024-02-13T12:33:25.690Z,2.53
2024-02-13T12:36:28.424Z,3.27
2024-02-13T12:39:33.490Z,2.05
2024-02-13T12:42:35.482Z,3.28
2024-02-13T12:45:44.416Z,3.25
2024-02-13T12:48:46.544Z,4.20
2024-02-13T12:51:48.861Z,2.93
2024-02-13T12:54:53.270Z,4.28
2024-02-13T12:57:56.134Z,4.53
2024-02-13T13:01:04.377Z,4.38
2024-02-13T13:04:11.095Z,3.37
2024-02-13T13:07:15.225Z,3.87
2024-02-13T13:10:21.013Z,4.10
2024-02-13T13:13:24.518Z,3.88
2024-02-13T13:16:30.184Z,3.70
2024-02-13T13:19:33.067Z,5.13
2024-02-13T13:22:42.338Z,4.53
2024-02-13T13:25:46.908Z,4.43
2024-02-13T13:28:49.964Z,3.42
2024-02-13T13:31:52.965Z,3.35
2024-02-13T13:34:55.434Z,3.10
2024-02-13T13:37:57.807Z,3.00
2024-02-13T13:41:02.971Z,2.97
2024-02-13T13:44:05.765Z,3.15
2024-02-13T13:47:09.183Z,2.90
2024-02-13T13:50:12.677Z,2.87
2024-02-13T13:53:14.974Z,3.13
2024-02-13T13:56:17.084Z,2.28
2024-02-13T13:59:19.636Z,2.53
2024-02-13T14:02:22.256Z,2.28
2024-02-13T14:05:24.929Z,2.40
2024-02-13T14:08:29.581Z,3.20
2024-02-13T14:11:32.090Z,2.47
2024-02-13T14:14:35.414Z,5.60
2024-02-13T14:17:38.305Z,3.90
2024-02-13T14:20:41.779Z,3.40
2024-02-13T14:23:44.992Z,2.63
2024-02-13T14:26:47.706Z,2.97
2024-02-13T14:29:50.270Z,4.38
2024-02-13T14:32:53.120Z,3.95
2024-02-13T14:35:55.225Z,2.57
2024-02-13T14:39:02.334Z,3.13
2024-02-13T14:42:04.785Z,2.95
2024-02-13T14:45:07.569Z,3.15
2024-02-13T14:48:13.875Z,2.72
2024-02-13T14:51:19.853Z,2.97
2024-02-13T14:54:24.957Z,2.63
2024-02-13T14:57:27.999Z,2.47
2024-02-13T15:00:33.354Z,2.17
2024-02-13T15:03:35.934Z,1.67
2024-02-13T15:06:38.824Z,2.60
2024-02-13T15:09:41.510Z,2.50
2024-02-13T15:12:44.132Z,2.05
2024-02-13T15:15:49.844Z,4.03
2024-02-13T15:18:53.481Z,4.03
2024-02-13T15:21:55.764Z,2.53
2024-02-13T15:25:02.458Z,2.13
2024-02-13T15:28:05.174Z,2.22
2024-02-13T15:31:07.963Z,2.97
2024-02-13T15:34:11.356Z,2.80
2024-02-13T15:37:34.477Z,1.90
2024-02-13T15:40:55.167Z,2.55
2024-02-13T15:44:16.023Z,1.77
2024-02-13T15:47:18.174Z,2.38
2024-02-13T15:50:20.296Z,2.33
2024-02-13T15:53:22.935Z,1.85
2024-02-13T15:56:25.647Z,2.92
2024-02-13T15:59:30.783Z,3.93
2024-02-13T16:02:35.120Z,2.92
2024-02-13T16:05:38.917Z,3.08
2024-02-13T16:08:42.068Z,3.08
2024-02-13T16:11:44.303Z,4.37
2024-02-13T16:14:47.710Z,1.80
2024-02-13T16:17:49.954Z,3.60
2024-02-13T16:20:52.626Z,3.47
2024-02-13T16:23:55.354Z,5.20
2024-02-13T16:26:57.599Z,3.28
2024-02-13T16:30:02.522Z,5.28
2024-02-13T16:33:05.392Z,7.00
2024-02-13T16:36:08.238Z,8.47
2024-02-13T16:39:11.043Z,7.78
2024-02-13T16:42:15.808Z,11.00
2024-02-13T16:45:19.293Z,9.43
2024-02-13T16:48:21.973Z,9.68
2024-02-13T16:51:24.386Z,6.45
2024-02-13T16:54:27.029Z,7.63
2024-02-13T16:57:29.542Z,6.27
2024-02-13T17:00:32.587Z,3.92
2024-02-13T17:03:35.109Z,4.53
2024-02-13T17:06:37.564Z,7.25
2024-02-13T17:09:41.205Z,9.25
2024-02-13T17:12:43.389Z,6.22
2024-02-13T17:15:46.590Z,5.63
2024-02-13T17:18:50.321Z,6.93
2024-02-13T17:21:58.662Z,5.88
2024-02-13T17:25:01.882Z,6.82
2024-02-13T17:28:05.681Z,7.33
2024-02-13T17:31:07.878Z,8.23
2024-02-13T17:34:11.310Z,4.18
2024-02-13T17:37:13.604Z,6.47
2024-02-13T17:40:16.360Z,5.47
2024-02-13T17:43:18.988Z,7.43
2024-02-13T17:46:21.661Z,6.15
2024-02-13T17:49:26.701Z,5.13
2024-02-13T17:52:29.046Z,5.07
2024-02-13T17:55:31.229Z,6.53
2024-02-13T17:58:34.009Z,7.30
2024-02-13T18:01:36.086Z,5.90
2024-02-13T18:04:38.107Z,7.18
2024-02-13T18:07:40.497Z,6.03
2024-02-13T18:10:44.478Z,8.00
2024-02-13T18:13:47.375Z,6.70
2024-02-13T18:16:50.592Z,5.82
2024-02-13T18:19:53.262Z,5.40
2024-02-13T18:22:55.547Z,7.15
2024-02-13T18:25:57.910Z,7.30
2024-02-13T18:29:01.150Z,7.33
2024-02-13T18:32:03.681Z,9.23
2024-02-13T18:35:06.497Z,8.73
2024-02-13T18:38:09.997Z,10.52
2024-02-13T18:41:14.621Z,7.43
2024-02-13T18:44:16.816Z,7.90
2024-02-13T18:47:19.095Z,6.15
2024-02-13T18:50:21.689Z,7.23
2024-02-13T18:53:29.753Z,7.03
2024-02-13T18:56:34.356Z,5.85
2024-02-13T18:59:36.897Z,5.87
2024-02-13T19:02:39.855Z,5.80
2024-02-13T19:05:42.622Z,6.85
2024-02-13T19:08:46.858Z,7.88
2024-02-13T19:11:53.857Z,6.43
2024-02-13T19:14:56.614Z,7.70
2024-02-13T19:17:59.099Z,6.65
2024-02-13T19:21:02.523Z,6.97
2024-02-13T19:24:04.765Z,8.38
2024-02-13T19:27:06.865Z,7.50
2024-02-13T19:30:09.964Z,6.53
2024-02-13T19:33:12.849Z,9.48
2024-02-13T19:36:19.929Z,10.88
2024-02-13T19:39:24.437Z,12.38
2024-02-13T19:42:26.951Z,11.15
2024-02-13T19:45:30.281Z,12.23
2024-02-13T19:48:35.091Z,7.47
2024-02-13T19:51:38.831Z,6.87
2024-02-13T19:54:40.891Z,6.72
2024-02-13T19:57:42.916Z,6.35
2024-02-13T20:00:46.198Z,11.20
2024-02-13T20:03:48.614Z,6.30
2024-02-13T20:06:51.286Z,8.20
2024-02-13T20:09:55.668Z,7.45
2024-02-13T20:12:57.741Z,7.05
2024-02-13T20:16:00.258Z,5.53
2024-02-13T20:19:04.248Z,7.07
2024-02-13T20:22:07.399Z,5.43
2024-02-13T20:25:14.158Z,6.57
2024-02-13T20:28:16.782Z,8.73
2024-02-13T20:31:19.381Z,16.50
2024-02-13T20:34:22.770Z,11.75
2024-02-13T20:37:25.960Z,6.82
2024-02-13T20:40:28.045Z,7.25
2024-02-13T20:43:30.515Z,7.45
2024-02-13T20:46:34.514Z,7.05
2024-02-13T20:49:37.607Z,9.45
2024-02-13T20:52:40.507Z,16.20
2024-02-13T20:55:42.630Z,12.35
2024-02-13T20:58:46.291Z,15.90
2024-02-13T21:01:49.586Z,13.27
2024-02-13T21:04:51.834Z,14.40
2024-02-13T21:07:54.056Z,13.63
2024-02-13T21:11:03.366Z,16.50
2024-02-13T21:14:05.590Z,14.15
2024-02-13T21:17:09.440Z,14.10
2024-02-13T21:20:12.451Z,13.43
2024-02-13T21:23:37.735Z,16.40
2024-02-13T21:26:42.961Z,10.77
2024-02-13T21:29:46.698Z,10.63
2024-02-13T21:32:48.985Z,9.07
2024-02-13T21:35:51.983Z,8.32
2024-02-13T21:38:54.599Z,9.95
2024-02-13T21:41:56.697Z,8.95
2024-02-13T21:45:02.175Z,8.38
2024-02-13T21:48:05.738Z,10.50
2024-02-13T21:51:08.352Z,8.05
2024-02-13T21:54:11.017Z,9.13
2024-02-13T21:57:14.237Z,8.73
2024-02-13T22:00:17.680Z,6.38
2024-02-13T22:03:19.875Z,9.60
2024-02-13T22:06:24.317Z,9.27
2024-02-13T22:09:27.840Z,10.38
2024-02-13T22:12:31.769Z,8.02
2024-02-13T22:15:40.121Z,7.00
2024-02-13T22:18:44.506Z,9.65
2024-02-13T22:21:47.221Z,10.38
2024-02-13T22:24:51.788Z,10.93
2024-02-13T22:27:54.887Z,13.60
2024-02-13T22:30:57.168Z,11.18
2024-02-13T22:33:59.331Z,10.70
2024-02-13T22:37:01.790Z,10.98
2024-02-13T22:40:05.137Z,11.60
2024-02-13T22:43:08.385Z,11.40
2024-02-13T22:46:11.087Z,14.15
2024-02-13T22:49:13.304Z,15.85
2024-02-13T22:52:15.425Z,13.10
2024-02-13T22:55:17.487Z,12.43
2024-02-13T22:58:19.860Z,10.93
2024-02-13T23:01:21.986Z,8.13
2024-02-13T23:04:24.582Z,6.73
2024-02-13T23:07:27.655Z,11.70
2024-02-13T23:10:30.396Z,8.63
2024-02-13T23:13:38.729Z,7.18
2024-02-13T23:16:46.961Z,6.38
2024-02-13T23:19:49.516Z,6.53
2024-02-13T23:22:51.624Z,6.53
2024-02-13T23:25:53.921Z,8.57
2024-02-13T23:28:57.535Z,9.32
2024-02-13T23:31:59.808Z,9.05
2024-02-13T23:35:03.453Z,6.43
2024-02-13T23:38:07.042Z,9.57
2024-02-13T23:41:09.428Z,9.57
2024-02-13T23:44:11.533Z,7.90
2024-02-13T23:47:14.142Z,10.05
2024-02-13T23:50:17.777Z,15.65
2024-02-13T23:53:20.192Z,15.90
2024-02-13T23:56:22.307Z,13.33
2024-02-13T23:59:24.874Z,9.82
